createdAt,value
2022-11-21T00:02:04.030Z,18.00
2022-11-21T00:07:07.061Z,20.25
2022-11-21T00:12:09.934Z,19.40
2022-11-21T00:17:14.020Z,19.00
2022-11-21T00:22:16.863Z,19.20
2022-11-21T00:27:19.772Z,19.40
2022-11-21T00:32:23.969Z,18.80
2022-11-21T00:37:26.916Z,17.00
2022-11-21T00:42:29.654Z,17.60
2022-11-21T00:47:33.736Z,17.80
2022-11-21T00:52:36.511Z,17.80
2022-11-21T00:57:39.267Z,17.60
2022-11-21T01:02:43.457Z,19.00
2022-11-21T01:07:46.290Z,18.00
2022-11-21T01:12:49.050Z,18.00
2022-11-21T01:17:53.170Z,18.20
2022-11-21T01:22:55.983Z,17.00
2022-11-21T01:27:58.750Z,18.00
2022-11-21T01:33:02.892Z,18.00
2022-11-21T01:38:05.653Z,17.00
2022-11-21T01:43:12.457Z,17.20
2022-11-21T01:48:16.537Z,16.80
2022-11-21T01:53:19.381Z,16.00
2022-11-21T01:58:22.518Z,15.40
2022-11-21T02:03:27.803Z,17.00
2022-11-21T02:08:30.627Z,16.40
2022-11-21T02:13:33.619Z,15.40
2022-11-21T02:18:37.816Z,18.80
2022-11-21T02:23:42.801Z,18.00
2022-11-21T02:28:46.945Z,17.60
2022-11-21T02:33:49.687Z,15.00
2022-11-21T02:38:52.462Z,15.20
2022-11-21T02:43:58.125Z,16.60
2022-11-21T02:49:00.858Z,15.20
2022-11-21T02:54:03.699Z,15.00
2022-11-21T02:59:07.800Z,15.60
2022-11-21T03:04:10.591Z,15.60
2022-11-21T03:09:13.639Z,15.00
2022-11-21T03:14:17.832Z,16.40
2022-11-21T03:19:20.609Z,15.80
2022-11-21T03:24:23.481Z,14.60
2022-11-21T03:29:27.652Z,13.80
2022-11-21T03:34:30.503Z,15.00
2022-11-21T03:39:33.313Z,15.00
2022-11-21T03:44:37.376Z,16.00
2022-11-21T03:49:40.151Z,15.80
2022-11-21T03:54:42.971Z,14.20
2022-11-21T03:59:47.111Z,14.00
2022-11-21T04:04:50.010Z,15.60
2022-11-21T04:09:52.791Z,15.00
2022-11-21T04:14:57.344Z,13.40
2022-11-21T04:20:00.292Z,13.40
2022-11-21T04:25:03.130Z,12.00
2022-11-21T04:30:08.391Z,14.80
2022-11-21T04:35:11.357Z,14.80
2022-11-21T04:40:14.250Z,14.00
2022-11-21T04:45:18.620Z,14.20
2022-11-21T04:50:21.432Z,15.00
2022-11-21T04:55:25.521Z,14.00
2022-11-21T05:00:29.705Z,14.20
2022-11-21T05:05:32.546Z,13.80
2022-11-21T05:10:52.124Z,13.00
2022-11-21T05:15:58.753Z,12.80
2022-11-21T05:21:02.388Z,12.80
2022-11-21T05:26:05.277Z,14.00
2022-11-21T05:31:09.383Z,13.40
2022-11-21T05:36:12.169Z,14.00
2022-11-21T05:41:14.953Z,11.80
2022-11-21T05:46:20.505Z,13.00
2022-11-21T05:51:23.336Z,13.20
2022-11-21T05:56:26.214Z,14.00
2022-11-21T06:01:47.739Z,13.40
2022-11-21T06:06:50.552Z,13.20
2022-11-21T06:11:53.268Z,12.80
2022-11-21T06:16:57.378Z,11.00
2022-11-21T06:22:00.139Z,13.00
2022-11-21T06:27:03.004Z,14.00
2022-11-21T06:32:07.204Z,12.60
2022-11-21T06:37:09.957Z,10.40
2022-11-21T06:42:12.702Z,11.40
2022-11-21T06:47:17.075Z,13.20
2022-11-21T06:52:19.826Z,11.80
2022-11-21T06:57:22.695Z,11.00
2022-11-21T07:02:27.186Z,12.40
2022-11-21T07:07:30.027Z,10.60
2022-11-21T07:12:50.760Z,12.40
2022-11-21T07:17:54.905Z,11.40
2022-11-21T07:22:57.794Z,11.40
2022-11-21T07:28:00.637Z,10.40
2022-11-21T07:33:06.164Z,10.00
2022-11-21T07:38:08.970Z,9.60
2022-11-21T07:43:12.098Z,11.20
2022-11-21T07:48:16.349Z,12.00
2022-11-21T07:53:19.171Z,10.80
2022-11-21T07:58:22.125Z,9.80
2022-11-21T08:03:26.376Z,10.80
2022-11-21T08:08:29.176Z,10.40
2022-11-21T08:13:32.347Z,10.80
2022-11-21T08:18:36.473Z,37.50
2022-11-21T08:23:39.326Z,40.50
2022-11-21T08:28:42.162Z,32.75
2022-11-21T08:33:46.295Z,32.00
2022-11-21T08:38:49.083Z,28.00
2022-11-21T08:43:51.848Z,25.20
2022-11-21T08:48:56.084Z,25.60
2022-11-21T08:53:59.533Z,21.40
2022-11-21T08:59:02.505Z,21.60
2022-11-21T09:04:06.715Z,21.00
2022-11-21T09:09:09.550Z,19.00
2022-11-21T09:14:38.327Z,19.60
2022-11-21T09:19:42.596Z,18.00
2022-11-21T09:24:45.487Z,16.60
2022-11-21T09:29:53.850Z,17.60
2022-11-21T09:34:58.615Z,18.20
2022-11-21T09:40:01.770Z,16.00
2022-11-21T09:45:09.277Z,14.20
2022-11-21T09:50:24.032Z,18.60
2022-11-21T09:55:29.912Z,16.20
2022-11-21T10:00:35.387Z,16.40
2022-11-21T10:05:42.380Z,15.60
2022-11-21T10:10:53.124Z,14.80
2022-11-21T10:15:58.747Z,17.60
2022-11-21T10:21:04.776Z,14.20
2022-11-21T10:26:15.518Z,13.80
2022-11-21T10:31:18.299Z,16.80
2022-11-21T10:36:27.555Z,15.40
2022-11-21T10:41:41.542Z,17.40
2022-11-21T10:46:55.675Z,15.20
2022-11-21T10:52:01.836Z,18.40
2022-11-21T10:57:08.343Z,14.00
2022-11-21T11:02:24.057Z,17.80
2022-11-21T11:07:28.940Z,14.40
2022-11-21T11:12:51.725Z,12.60
2022-11-21T11:17:56.282Z,15.80
2022-11-21T11:23:00.600Z,14.20
2022-11-21T11:28:03.956Z,15.20
2022-11-21T11:33:29.539Z,15.00
2022-11-21T11:38:33.829Z,14.00
2022-11-21T11:43:55.288Z,16.20
2022-11-21T11:49:20.710Z,15.00
2022-11-21T11:54:27.862Z,15.00
2022-11-21T11:59:32.452Z,13.80
2022-11-21T12:04:47.144Z,15.60
2022-11-21T12:09:55.946Z,13.40
2022-11-21T12:15:20.558Z,17.00
2022-11-21T12:20:24.456Z,17.60
2022-11-21T12:25:31.076Z,14.20
2022-11-21T12:30:54.499Z,13.40
2022-11-21T12:36:35.388Z,15.20
2022-11-21T12:42:00.071Z,13.40
2022-11-21T12:47:12.687Z,13.40
2022-11-21T12:52:47.958Z,14.00
2022-11-21T12:58:09.589Z,12.80
2022-11-21T13:08:32.442Z,13.40
2022-11-21T13:13:35.698Z,13.20
2022-11-21T13:18:42.783Z,12.80
2022-11-21T13:23:47.162Z,14.20
2022-11-21T13:28:50.210Z,13.60
2022-11-21T13:33:53.162Z,12.60
2022-11-21T13:39:28.639Z,11.80
2022-11-21T13:44:41.254Z,12.80
2022-11-21T13:49:47.027Z,13.40
2022-11-21T13:55:17.974Z,12.40
2022-11-21T14:00:31.363Z,10.40
2022-11-21T14:06:11.286Z,11.60
2022-11-21T14:11:22.571Z,10.00
2022-11-21T14:16:29.114Z,10.60
2022-11-21T14:21:32.797Z,12.40
2022-11-21T14:26:41.667Z,11.80
2022-11-21T14:31:47.261Z,11.60
2022-11-21T14:36:50.292Z,11.20
2022-11-21T14:41:55.300Z,11.40
2022-11-21T14:47:04.334Z,10.20
2022-11-21T14:52:17.861Z,10.80
2022-11-21T14:57:25.143Z,11.40
2022-11-21T15:02:28.868Z,8.80
2022-11-21T15:07:36.749Z,10.60
2022-11-21T15:18:29.386Z,10.20
2022-11-21T15:23:33.121Z,9.80
2022-11-21T15:28:37.339Z,10.00
2022-11-21T15:34:19.265Z,10.00
2022-11-21T15:39:20.131Z,10.00
2022-11-21T15:44:25.163Z,8.40
2022-11-21T15:49:35.377Z,10.80
2022-11-21T15:54:38.245Z,12.00
2022-11-21T15:57:15.471Z,10.60
2022-11-21T15:59:42.527Z,8.00
2022-11-21T16:04:45.537Z,8.40
2022-11-21T16:09:49.655Z,6.00
2022-11-21T16:14:53.805Z,7.00
2022-11-21T16:19:56.612Z,9.00
2022-11-21T16:24:59.465Z,7.80
2022-11-21T16:30:03.684Z,7.00
2022-11-21T16:35:06.966Z,7.20
2022-11-21T16:40:11.111Z,8.00
2022-11-21T16:45:15.485Z,8.80
2022-11-21T16:50:18.763Z,9.40
2022-11-21T16:55:21.643Z,11.00
2022-11-21T17:00:26.020Z,9.20
2022-11-21T17:05:28.854Z,10.00
2022-11-21T17:10:34.083Z,10.40
2022-11-21T17:15:38.540Z,18.40
2022-11-21T17:20:41.390Z,18.00
2022-11-21T17:25:44.171Z,18.00
2022-11-21T17:30:48.518Z,19.80
2022-11-21T17:35:51.436Z,20.00
2022-11-21T17:41:00.500Z,19.80
2022-11-21T17:46:09.551Z,18.00
2022-11-21T17:51:13.799Z,17.80
2022-11-21T17:56:17.924Z,15.20
2022-11-21T18:01:22.398Z,17.80
2022-11-21T18:06:25.463Z,18.20
2022-11-21T18:11:31.909Z,15.80
2022-11-21T18:16:39.322Z,16.80
2022-11-21T18:21:42.192Z,16.80
2022-11-21T18:26:44.976Z,15.80
2022-11-21T18:31:49.254Z,17.80
2022-11-21T18:36:52.124Z,15.80
2022-11-21T18:41:54.950Z,15.00
2022-11-21T18:46:59.133Z,17.00
2022-11-21T18:52:02.224Z,16.60
2022-11-21T18:57:05.409Z,15.40
2022-11-21T19:02:10.213Z,14.40
2022-11-21T19:07:13.263Z,14.00
2022-11-21T19:12:17.620Z,16.00
2022-11-21T19:17:22.305Z,16.00
2022-11-21T19:22:26.359Z,15.80
2022-11-21T19:27:29.151Z,15.00
2022-11-21T19:32:34.141Z,15.00
2022-11-21T19:37:37.039Z,16.20
2022-11-21T19:42:40.011Z,14.80
2022-11-21T19:47:45.855Z,14.20
2022-11-21T19:52:48.903Z,15.60
2022-11-21T19:57:51.810Z,16.20
2022-11-21T20:02:55.996Z,15.20
2022-11-21T20:08:04.943Z,15.60
2022-11-21T20:13:11.040Z,17.20
2022-11-21T20:18:15.308Z,14.00
2022-11-21T20:23:18.146Z,15.00
2022-11-21T20:28:20.909Z,16.40
2022-11-21T20:33:25.158Z,15.00
2022-11-21T20:38:28.274Z,14.00
2022-11-21T20:43:59.504Z,15.20
2022-11-21T20:48:56.245Z,18.00
2022-11-21T20:54:03.285Z,17.20
2022-11-21T20:59:06.774Z,15.80
2022-11-21T21:04:11.445Z,15.00
2022-11-21T21:09:14.271Z,15.40
2022-11-21T21:14:17.051Z,19.40
2022-11-21T21:19:21.506Z,20.40
2022-11-21T21:24:24.474Z,20.80
2022-11-21T21:29:27.508Z,21.40
2022-11-21T21:34:33.237Z,21.60
2022-11-21T21:39:36.417Z,19.60
2022-11-21T21:44:39.792Z,21.40
2022-11-21T21:49:44.159Z,19.00
2022-11-21T21:54:46.996Z,18.00
2022-11-21T21:59:49.784Z,19.80
2022-11-21T22:04:54.046Z,18.00
2022-11-21T22:09:56.880Z,17.60
2022-11-21T22:14:59.644Z,15.80
2022-11-21T22:20:03.919Z,16.40
2022-11-21T22:25:07.395Z,17.40
2022-11-21T22:30:11.855Z,20.00
2022-11-21T22:35:16.166Z,17.80
2022-11-21T22:40:19.256Z,16.80
2022-11-21T22:45:22.063Z,14.60
2022-11-21T22:50:26.193Z,15.20
2022-11-21T22:55:29.006Z,18.20
2022-11-21T23:00:31.791Z,16.60
2022-11-21T23:05:35.956Z,15.40
2022-11-21T23:10:38.728Z,14.80
2022-11-21T23:15:41.459Z,19.00
